createdAt,value
2023-02-13T00:01:17.456Z,28.45
2023-02-13T00:03:47.281Z,22.50
2023-02-13T00:06:17.611Z,19.75
2023-02-13T00:08:49.365Z,19.85
2023-02-13T00:11:19.919Z,24.55
2023-02-13T00:13:51.454Z,30.17
2023-02-13T00:16:18.248Z,27.05
2023-02-13T00:18:47.113Z,23.70
2023-02-13T00:21:15.887Z,21.45
2023-02-13T00:24:12.188Z,25.60
2023-02-13T00:26:43.061Z,22.95
2023-02-13T00:29:11.879Z,20.75
2023-02-13T00:31:42.287Z,20.45
2023-02-13T00:34:35.839Z,19.65
2023-02-13T00:37:09.562Z,16.65
2023-02-13T00:39:38.960Z,22.15
2023-02-13T00:42:09.617Z,22.45
2023-02-13T00:44:43.246Z,24.25
2023-02-13T00:47:13.975Z,19.35
2023-02-13T00:49:43.181Z,20.05
2023-02-13T00:52:12.425Z,26.20
2023-02-13T00:54:47.002Z,22.05
2023-02-13T00:57:13.866Z,24.45
2023-02-13T00:59:43.615Z,25.42
2023-02-13T01:14:17.260Z,23.90
2023-02-13T01:16:53.427Z,25.95
2023-02-13T01:19:24.229Z,30.70
2023-02-13T01:22:20.894Z,26.80
2023-02-13T01:24:54.851Z,35.20
2023-02-13T01:27:23.122Z,33.50
2023-02-13T01:29:50.958Z,25.02
2023-02-13T01:32:19.658Z,27.73
2023-02-13T01:34:49.218Z,27.50
2023-02-13T01:37:19.746Z,23.30
2023-02-13T01:39:53.856Z,22.60
2023-02-13T01:42:35.994Z,25.48
2023-02-13T01:45:17.734Z,24.20
2023-02-13T01:47:50.123Z,25.50
2023-02-13T01:50:32.494Z,30.10
2023-02-13T01:53:15.535Z,25.85
2023-02-13T01:56:00.592Z,27.08
2023-02-13T01:58:35.647Z,25.20
2023-02-13T02:01:05.598Z,23.88
2023-02-13T02:03:41.149Z,23.52
2023-02-13T02:06:26.958Z,26.90
2023-02-13T02:09:04.563Z,26.40
2023-02-13T02:11:58.099Z,26.75
2023-02-13T02:14:32.998Z,28.15
2023-02-13T02:16:59.868Z,29.65
2023-02-13T02:19:34.379Z,30.10
2023-02-13T02:22:23.423Z,26.48
2023-02-13T02:25:23.836Z,28.40
2023-02-13T02:28:49.834Z,31.17
2023-02-13T02:35:19.092Z,23.05
2023-02-13T02:37:52.737Z,28.23
2023-02-13T02:40:34.073Z,29.55
2023-02-13T02:43:24.283Z,27.90
2023-02-13T02:49:57.443Z,26.70
2023-02-13T02:52:51.807Z,25.75
2023-02-13T02:58:47.296Z,27.45
2023-02-13T03:01:37.429Z,30.20
2023-02-13T03:04:26.795Z,27.95
2023-02-13T03:07:00.320Z,25.67
2023-02-13T03:10:01.758Z,27.23
2023-02-13T03:13:13.886Z,26.95
2023-02-13T03:16:10.095Z,24.00
2023-02-13T03:19:00.744Z,27.40
2023-02-13T03:22:19.633Z,27.10
2023-02-13T03:25:11.788Z,21.90
2023-02-13T03:28:16.998Z,20.63
2023-02-13T03:30:59.929Z,21.65
2023-02-13T03:33:52.241Z,27.48
2023-02-13T03:40:23.186Z,24.77
2023-02-13T03:43:19.344Z,21.38
2023-02-13T03:46:04.767Z,28.83
2023-02-13T03:54:46.414Z,24.73
2023-02-13T03:57:38.391Z,22.75
2023-02-13T04:00:16.795Z,21.52
2023-02-13T04:03:21.964Z,23.60
2023-02-13T04:05:56.291Z,22.67
2023-02-13T04:08:25.294Z,23.58
2023-02-13T04:11:23.831Z,26.25
2023-02-13T04:14:00.165Z,20.23
2023-02-13T04:19:38.795Z,25.65
2023-02-13T04:22:07.733Z,23.80
2023-02-13T04:24:34.444Z,24.80
2023-02-13T04:27:03.935Z,26.70
2023-02-13T04:29:33.845Z,26.45
2023-02-13T04:32:04.130Z,24.40
2023-02-13T04:34:30.981Z,23.63
2023-02-13T04:37:00.960Z,26.95
2023-02-13T04:39:27.610Z,24.70
2023-02-13T04:41:58.973Z,27.38
2023-02-13T04:44:30.301Z,27.52
2023-02-13T04:47:01.864Z,28.10
2023-02-13T04:49:37.035Z,27.42
2023-02-13T04:52:07.835Z,26.15
2023-02-13T04:54:36.737Z,25.80
2023-02-13T04:57:03.516Z,25.10
2023-02-13T04:59:35.558Z,23.33
2023-02-13T05:02:11.865Z,22.05
2023-02-13T05:04:38.964Z,28.10
2023-02-13T05:09:57.194Z,22.75
2023-02-13T05:12:26.559Z,19.40
2023-02-13T05:14:53.465Z,24.40
2023-02-13T05:17:21.475Z,26.60
2023-02-13T05:19:59.522Z,26.75
2023-02-13T05:22:44.609Z,22.80
2023-02-13T05:25:11.511Z,21.20
2023-02-13T05:27:50.345Z,22.02
2023-02-13T05:30:23.158Z,20.83
2023-02-13T05:32:56.205Z,20.73
2023-02-13T05:35:30.055Z,21.30
2023-02-13T05:38:00.208Z,21.25
2023-02-13T05:40:29.810Z,26.00
2023-02-13T05:42:57.878Z,23.58
2023-02-13T05:45:27.317Z,20.95
2023-02-13T05:47:59.922Z,24.13
2023-02-13T05:50:27.492Z,26.77
2023-02-13T05:52:58.077Z,24.58
2023-02-13T05:56:10.950Z,25.08
2023-02-13T05:58:40.149Z,27.98
2023-02-13T06:01:17.301Z,27.20
2023-02-13T06:03:46.128Z,37.72
2023-02-13T06:06:17.236Z,61.83
2023-02-13T06:08:52.304Z,50.67
2023-02-13T06:11:20.093Z,36.15
2023-02-13T06:13:52.848Z,38.22
2023-02-13T06:16:19.798Z,44.58
2023-02-13T06:18:47.113Z,35.53
2023-02-13T06:21:16.665Z,61.70
2023-02-13T06:23:44.280Z,61.92
2023-02-13T06:26:11.094Z,39.03
2023-02-13T06:28:45.363Z,45.65
2023-02-13T06:31:13.243Z,35.85
2023-02-13T06:34:07.558Z,31.23
2023-02-13T06:36:38.701Z,35.58
2023-02-13T06:39:05.548Z,39.13
2023-02-13T06:41:34.615Z,43.63
2023-02-13T06:44:03.968Z,42.92
2023-02-13T06:49:32.038Z,35.55
2023-02-13T06:52:02.417Z,34.50
2023-02-13T06:54:46.743Z,34.25
2023-02-13T06:57:18.644Z,30.15
2023-02-13T06:59:47.153Z,29.13
2023-02-13T07:02:15.192Z,30.63
2023-02-13T07:04:44.714Z,35.33
2023-02-13T07:07:21.328Z,30.27
2023-02-13T07:09:53.888Z,34.55
2023-02-13T07:12:24.129Z,31.77
2023-02-13T07:14:54.044Z,33.38
2023-02-13T07:17:27.929Z,31.48
2023-02-13T07:19:55.314Z,33.97
2023-02-13T07:22:24.520Z,39.97
2023-02-13T07:25:00.046Z,31.20
2023-02-13T07:27:30.195Z,29.67
2023-02-13T07:29:59.095Z,29.77
2023-02-13T07:32:32.438Z,30.10
2023-02-13T07:35:02.795Z,29.70
2023-02-13T07:37:31.090Z,32.25
2023-02-13T07:39:59.009Z,35.80
2023-02-13T07:42:29.492Z,28.50
2023-02-13T07:45:05.240Z,30.63
2023-02-13T07:47:33.504Z,31.27
2023-02-13T07:50:05.602Z,34.35
2023-02-13T07:52:37.144Z,34.28
2023-02-13T07:55:08.246Z,28.85
2023-02-13T07:57:34.934Z,33.03
2023-02-13T08:00:03.739Z,33.20
2023-02-13T08:02:43.753Z,32.15
2023-02-13T08:05:13.806Z,33.90
2023-02-13T08:07:40.543Z,29.13
2023-02-13T08:13:24.675Z,35.55
2023-02-13T08:15:55.407Z,33.95
2023-02-13T08:18:22.229Z,36.33
2023-02-13T08:23:51.395Z,30.20
2023-02-13T08:26:21.192Z,30.50
2023-02-13T08:28:57.604Z,35.47
2023-02-13T08:31:26.806Z,35.03
2023-02-13T08:34:24.922Z,37.90
2023-02-13T08:36:56.197Z,35.53
2023-02-13T08:39:23.280Z,33.35
2023-02-13T08:41:49.961Z,30.67
2023-02-13T08:44:17.092Z,36.17
2023-02-13T08:46:55.515Z,36.08
2023-02-13T08:49:27.223Z,36.95
2023-02-13T08:52:05.107Z,39.60
2023-02-13T08:54:38.704Z,36.85
2023-02-13T08:57:12.201Z,34.58
2023-02-13T08:59:41.199Z,35.38
2023-02-13T09:02:14.458Z,30.85
2023-02-13T09:04:41.280Z,28.70
2023-02-13T09:07:09.498Z,32.55
2023-02-13T09:09:40.695Z,28.55
2023-02-13T09:12:37.360Z,26.40
2023-02-13T09:15:30.191Z,26.40
2023-02-13T09:18:00.667Z,30.67
2023-02-13T09:20:30.023Z,27.48
2023-02-13T09:23:09.227Z,22.10
2023-02-13T09:25:39.307Z,23.38
2023-02-13T09:28:09.537Z,24.35
2023-02-13T09:30:44.768Z,25.10
2023-02-13T09:33:16.422Z,26.70
2023-02-13T09:35:43.311Z,24.77
2023-02-13T09:38:12.590Z,21.35
2023-02-13T09:40:52.948Z,23.48
2023-02-13T09:43:33.970Z,25.02
2023-02-13T09:46:28.373Z,22.73
2023-02-13T09:49:02.429Z,25.48
2023-02-13T09:51:31.659Z,22.40
2023-02-13T09:54:08.359Z,21.75
2023-02-13T09:57:08.359Z,21.13
2023-02-13T10:00:16.054Z,22.30
2023-02-13T10:02:58.017Z,20.88
2023-02-13T10:05:42.037Z,21.57
2023-02-13T10:08:47.943Z,26.83
2023-02-13T10:11:21.905Z,35.33
2023-02-13T10:14:17.397Z,23.75
2023-02-13T10:17:08.540Z,24.15
2023-02-13T10:20:12.359Z,24.90
2023-02-13T10:22:46.461Z,24.83
2023-02-13T10:25:56.641Z,20.80
2023-02-13T10:28:46.227Z,19.88
2023-02-13T10:31:20.434Z,18.35
2023-02-13T10:33:58.392Z,22.95
2023-02-13T10:36:30.830Z,20.70
2023-02-13T10:39:22.251Z,20.08
2023-02-13T10:42:06.728Z,22.30
2023-02-13T10:44:59.471Z,18.58
2023-02-13T10:47:44.904Z,34.45
2023-02-13T10:50:27.721Z,25.80
2023-02-13T10:56:41.302Z,243.95
2023-02-13T10:59:42.149Z,24.20
2023-02-13T11:02:27.738Z,17.48
2023-02-13T11:08:31.458Z,19.95
2023-02-13T11:31:23.901Z,20.02
2023-02-13T11:33:51.511Z,39.38
2023-02-13T11:36:29.778Z,17.85
2023-02-13T11:39:22.537Z,18.65
2023-02-13T11:41:51.627Z,17.73
2023-02-13T11:44:28.927Z,23.45
2023-02-13T11:46:58.781Z,17.38
2023-02-13T11:49:27.073Z,19.05
2023-02-13T11:52:00.544Z,16.15
2023-02-13T11:54:43.676Z,20.50
2023-02-13T11:57:29.006Z,58.75
2023-02-13T12:00:01.254Z,24.95
2023-02-13T12:03:09.541Z,28.55
2023-02-13T12:06:08.740Z,17.73
2023-02-13T12:08:37.595Z,24.77
2023-02-13T12:11:29.565Z,17.85
2023-02-13T12:13:58.629Z,25.27
2023-02-13T12:16:43.617Z,16.90
2023-02-13T12:19:28.199Z,21.08
2023-02-13T12:22:07.942Z,23.27
2023-02-13T12:25:04.167Z,14.20
2023-02-13T12:28:04.581Z,18.30
2023-02-13T12:30:40.176Z,16.25
2023-02-13T12:33:25.364Z,15.50
2023-02-13T12:36:10.471Z,18.98
2023-02-13T12:39:04.819Z,15.73
2023-02-13T12:41:54.467Z,15.07
2023-02-13T12:44:34.330Z,15.27
2023-02-13T12:47:13.533Z,16.77
2023-02-13T12:49:52.060Z,17.73
2023-02-13T12:52:27.750Z,16.42
2023-02-13T12:55:34.228Z,21.30
2023-02-13T12:58:15.117Z,41.97
2023-02-13T13:01:11.645Z,25.25
2023-02-13T13:04:02.271Z,33.72
2023-02-13T13:06:47.695Z,21.90
2023-02-13T13:09:41.168Z,17.00
2023-02-13T13:12:24.397Z,20.30
2023-02-13T13:15:03.040Z,20.35
2023-02-13T13:17:51.620Z,18.70
2023-02-13T13:20:48.185Z,14.23
2023-02-13T13:23:39.032Z,21.58
2023-02-13T13:26:25.308Z,23.80
2023-02-13T13:31:55.629Z,17.02
2023-02-13T13:34:25.093Z,17.40
2023-02-13T13:37:03.336Z,13.10
2023-02-13T13:39:47.377Z,15.68
2023-02-13T13:42:31.505Z,16.38
2023-02-13T13:45:22.337Z,17.73
2023-02-13T13:47:54.132Z,17.35
2023-02-13T13:53:18.362Z,11.45
2023-02-13T13:56:13.845Z,12.05
2023-02-13T13:58:45.961Z,11.68
2023-02-13T14:01:30.090Z,15.93
2023-02-13T14:04:23.290Z,16.00
2023-02-13T14:07:02.298Z,12.60
2023-02-13T14:09:40.970Z,11.95
2023-02-13T14:12:32.246Z,14.00
2023-02-13T14:14:59.860Z,17.60
2023-02-13T14:17:44.891Z,17.08
2023-02-13T14:20:28.969Z,15.35
2023-02-13T14:23:13.374Z,14.10
2023-02-13T14:25:55.933Z,13.60
2023-02-13T14:28:28.510Z,11.27
2023-02-13T14:31:10.719Z,14.23
2023-02-13T14:33:42.112Z,13.38
2023-02-13T14:36:33.832Z,9.75
2023-02-13T14:39:23.267Z,12.15
2023-02-13T14:41:59.727Z,15.88
2023-02-13T14:44:47.797Z,12.20
2023-02-13T14:47:27.473Z,16.20
2023-02-13T14:49:56.744Z,12.73
2023-02-13T14:52:34.568Z,14.63
2023-02-13T14:55:22.391Z,10.38
2023-02-13T14:57:53.774Z,12.75
2023-02-13T15:00:47.190Z,12.40
2023-02-13T15:03:28.003Z,11.50
2023-02-13T15:06:26.796Z,10.20
2023-02-13T15:09:01.822Z,13.77
2023-02-13T15:11:43.270Z,11.15
2023-02-13T15:14:30.099Z,32.53
2023-02-13T15:16:56.953Z,21.35
2023-02-13T15:19:27.764Z,17.05
2023-02-13T15:22:00.516Z,16.77
2023-02-13T15:24:46.894Z,19.77
2023-02-13T15:27:19.175Z,11.65
2023-02-13T15:30:04.724Z,10.43
2023-02-13T15:32:36.215Z,11.38
2023-02-13T15:35:24.806Z,11.13
2023-02-13T15:37:51.999Z,15.50
2023-02-13T15:40:31.423Z,10.48
2023-02-13T15:42:59.995Z,13.32
2023-02-13T15:45:30.415Z,10.43
2023-02-13T15:47:58.363Z,14.02
2023-02-13T15:50:33.597Z,9.20
2023-02-13T15:53:03.898Z,10.55
2023-02-13T15:55:35.908Z,12.55
2023-02-13T15:58:04.217Z,10.00
2023-02-13T16:00:40.016Z,13.15
2023-02-13T16:03:16.300Z,11.60
2023-02-13T16:05:45.941Z,12.85
2023-02-13T16:08:37.931Z,13.00
2023-02-13T16:11:23.033Z,15.05
2023-02-13T16:13:59.667Z,12.30
2023-02-13T16:16:28.197Z,11.30
2023-02-13T16:19:01.119Z,12.38
2023-02-13T16:21:33.787Z,10.48
2023-02-13T16:26:43.076Z,13.70
2023-02-13T16:29:17.902Z,14.20
2023-02-13T16:31:52.359Z,14.63
2023-02-13T16:34:29.922Z,13.90
2023-02-13T16:37:05.342Z,11.30
2023-02-13T16:39:36.643Z,17.38
2023-02-13T16:42:19.082Z,17.85
2023-02-13T16:47:41.779Z,21.42
2023-02-13T16:50:33.577Z,21.23
2023-02-13T16:53:06.175Z,20.08
2023-02-13T16:55:33.201Z,24.27
2023-02-13T16:58:04.746Z,18.13
2023-02-13T17:00:32.481Z,20.15
2023-02-13T17:03:02.659Z,69.82
2023-02-13T17:05:29.687Z,89.85
2023-02-13T17:08:00.708Z,105.32
2023-02-13T17:10:34.590Z,161.68
2023-02-13T17:13:15.237Z,195.75
2023-02-13T17:15:44.188Z,154.32
2023-02-13T17:18:10.912Z,121.40
2023-02-13T17:20:42.080Z,51.40
2023-02-13T17:23:18.029Z,29.27
2023-02-13T17:25:48.984Z,22.02
2023-02-13T17:31:16.520Z,16.40
2023-02-13T17:33:44.518Z,15.07
2023-02-13T17:36:14.458Z,11.82
2023-02-13T17:38:43.120Z,10.52
2023-02-13T17:41:14.512Z,12.75
2023-02-13T17:43:42.246Z,14.23
2023-02-13T17:46:10.286Z,14.43
2023-02-13T17:48:54.526Z,13.20
2023-02-13T17:51:23.090Z,14.30
2023-02-13T17:53:49.936Z,16.63
2023-02-13T17:56:16.719Z,15.82
2023-02-13T17:58:47.817Z,18.48
2023-02-13T18:01:28.252Z,24.08
2023-02-13T18:03:57.320Z,10.95
2023-02-13T18:06:27.137Z,14.10
2023-02-13T18:08:53.922Z,14.27
2023-02-13T18:11:20.839Z,13.52
2023-02-13T18:13:49.792Z,9.40
2023-02-13T18:16:24.569Z,20.02
2023-02-13T18:18:51.769Z,30.45
2023-02-13T18:21:22.317Z,47.50
2023-02-13T18:23:53.220Z,34.10
2023-02-13T18:26:25.216Z,34.47
2023-02-13T18:28:53.272Z,33.53
2023-02-13T18:31:20.028Z,38.50
2023-02-13T18:33:47.008Z,44.42
2023-02-13T18:36:17.400Z,40.90
2023-02-13T18:38:48.115Z,44.08
2023-02-13T18:41:14.840Z,45.33
2023-02-13T18:43:47.296Z,50.20
2023-02-13T18:46:20.427Z,41.80
2023-02-13T18:49:03.585Z,44.45
2023-02-13T18:54:13.808Z,45.38
2023-02-13T18:56:43.333Z,47.78
2023-02-13T18:59:15.199Z,42.63
2023-02-13T19:01:42.017Z,35.33
2023-02-13T19:04:14.299Z,34.13
2023-02-13T19:06:42.555Z,33.58
2023-02-13T19:09:16.320Z,26.55
2023-02-13T19:11:48.165Z,27.23
2023-02-13T19:20:06.152Z,40.30
2023-02-13T19:26:31.385Z,47.30
2023-02-13T19:28:59.257Z,35.53
2023-02-13T19:40:39.679Z,32.33
2023-02-13T19:46:50.488Z,21.85
2023-02-13T19:52:29.294Z,17.73
2023-02-13T19:54:59.425Z,30.48
2023-02-13T20:25:12.582Z,21.40
2023-02-13T20:27:44.664Z,18.92
2023-02-13T20:30:15.691Z,21.77
2023-02-13T20:32:43.313Z,18.80
2023-02-13T20:35:12.381Z,19.88
2023-02-13T20:37:39.111Z,19.05
2023-02-13T20:40:12.043Z,17.48
2023-02-13T20:42:43.510Z,17.88
2023-02-13T20:45:10.342Z,18.77
2023-02-13T20:47:37.633Z,17.95
2023-02-13T20:50:05.063Z,20.67
2023-02-13T20:52:33.828Z,19.05
2023-02-13T20:55:01.368Z,21.50
2023-02-13T20:57:42.778Z,19.98
2023-02-13T21:00:12.491Z,17.65
2023-02-13T21:02:39.272Z,18.27
2023-02-13T21:05:07.402Z,16.05
2023-02-13T21:07:36.673Z,18.85
2023-02-13T21:10:09.392Z,23.30
2023-02-13T21:15:07.204Z,24.25
2023-02-13T21:17:33.878Z,30.25
2023-02-13T21:20:00.756Z,23.65
2023-02-13T21:22:30.783Z,31.63
2023-02-13T21:25:01.221Z,25.05
2023-02-13T21:27:30.230Z,27.90
2023-02-13T21:30:22.023Z,25.05
2023-02-13T21:32:53.303Z,29.90
2023-02-13T21:35:21.980Z,23.13
2023-02-13T21:37:51.398Z,22.55
2023-02-13T21:40:20.882Z,26.50
2023-02-13T21:42:52.473Z,26.70
2023-02-13T21:45:26.225Z,23.45
2023-02-13T21:48:00.374Z,21.67
2023-02-13T21:50:27.164Z,19.52
2023-02-13T21:52:59.389Z,22.85
2023-02-13T21:55:28.544Z,19.73
2023-02-13T21:57:55.264Z,22.30
2023-02-13T22:00:22.094Z,22.45
2023-02-13T22:02:52.686Z,22.75
2023-02-13T22:05:19.390Z,26.48
2023-02-13T22:08:05.570Z,27.58
2023-02-13T22:13:33.633Z,40.10
2023-02-13T22:16:06.195Z,70.78
2023-02-13T22:18:37.595Z,94.10
2023-02-13T22:21:09.542Z,130.90
2023-02-13T22:23:37.032Z,130.02
2023-02-13T22:26:24.462Z,108.82
2023-02-13T22:29:20.879Z,55.05
2023-02-13T22:31:47.863Z,47.05
2023-02-13T22:34:16.988Z,31.13
2023-02-13T22:36:49.489Z,31.17
2023-02-13T22:39:32.361Z,34.00
2023-02-13T22:41:59.016Z,31.17
2023-02-13T22:44:26.629Z,40.13
2023-02-13T22:47:23.323Z,47.58
2023-02-13T22:49:50.072Z,44.47
2023-02-13T22:52:21.294Z,37.90
2023-02-13T22:54:48.803Z,39.67
2023-02-13T22:57:18.495Z,38.08
2023-02-13T23:00:11.260Z,34.63
2023-02-13T23:02:44.560Z,35.25
2023-02-13T23:05:13.620Z,29.92
2023-02-13T23:08:07.393Z,34.33
2023-02-13T23:10:37.900Z,37.33
2023-02-13T23:13:07.234Z,34.70
2023-02-13T23:16:00.227Z,37.45
2023-02-13T23:18:27.093Z,33.27
2023-02-13T23:20:56.174Z,30.27
2023-02-13T23:23:27.635Z,39.00
2023-02-13T23:25:54.411Z,35.05
2023-02-13T23:28:21.039Z,29.25
2023-02-13T23:30:48.946Z,24.58
2023-02-13T23:33:15.694Z,24.10
2023-02-13T23:35:42.377Z,21.63
2023-02-13T23:38:16.649Z,32.65
2023-02-13T23:40:44.800Z,18.60
2023-02-13T23:43:12.271Z,22.92
2023-02-13T23:51:38.856Z,20.25
2023-02-13T23:54:07.627Z,20.98
2023-02-13T23:56:34.540Z,20.15
2023-02-13T23:59:03.163Z,18.45
